Lydbrook, United Kingdom
Current Conditions -  °F | °C
As of 3:50 PM on Thursday 30 Oct 2014 (Local Time) from EGBJ Reporting Station
Few Clouds Few Clouds  
Wind Chill: 18°   Ceiling: Unl
Heat Index: 18°   Visibility: 6mi
Dew Point: 15°   Wind: 7mph
Humidity: 83%   Direction: 180°S
Pressure: 30"   Gusts: NA
Location:  51.84°N, 2.58°W
Report Text: EGBJ 301550Z 18006KT 9999 FEW020 18/15 Q1016
Loading
Personal Weather Stations






























Interactive Weather Map
Tropical Storm Tracking
New forecast layout! Learn more

10-Day Weather Forecast

Advertisements
Track Severe Weather on mobile